createdAt,value
2023-05-08T06:51:15.270Z,15.60
2023-05-08T06:53:43.149Z,15.50
2023-05-08T06:56:11.077Z,15.50
2023-05-08T06:58:41.413Z,15.60
2023-05-08T07:01:15.118Z,15.60
2023-05-08T07:03:43.057Z,15.70
2023-05-08T07:06:10.928Z,15.60
2023-05-08T07:08:40.137Z,15.70
2023-05-08T07:11:10.063Z,16.30
2023-05-08T07:13:38.201Z,15.60
2023-05-08T07:16:10.900Z,15.70
2023-05-08T07:18:39.205Z,15.70
2023-05-08T07:21:07.192Z,15.70
2023-05-08T07:23:35.143Z,15.80
2023-05-08T07:26:04.577Z,16.00
2023-05-08T07:28:32.445Z,15.80
2023-05-08T07:31:00.314Z,15.90
2023-05-08T07:33:28.236Z,16.10
2023-05-08T07:35:56.135Z,16.00
2023-05-08T07:38:24.084Z,16.00
2023-05-08T07:40:54.469Z,16.00
2023-05-08T07:43:23.824Z,16.00
2023-05-08T07:45:52.133Z,16.00
2023-05-08T07:48:20.306Z,16.10
2023-05-08T07:50:49.989Z,16.10
2023-05-08T07:53:18.012Z,16.10
2023-05-08T07:55:45.804Z,16.10
2023-05-08T07:58:13.684Z,16.20
2023-05-08T08:00:42.838Z,16.20
2023-05-08T08:03:10.755Z,16.20
2023-05-08T08:05:39.657Z,16.20
2023-05-08T08:08:07.491Z,16.20
2023-05-08T08:10:35.878Z,16.20
2023-05-08T08:13:03.807Z,16.20
2023-05-08T08:15:31.746Z,16.20
2023-05-08T08:18:01.585Z,16.20
2023-05-08T08:20:29.649Z,16.10
2023-05-08T08:22:58.024Z,16.20
2023-05-08T08:25:25.942Z,16.20
2023-05-08T08:27:53.790Z,16.10
2023-05-08T08:30:21.774Z,16.10
2023-05-08T08:32:49.745Z,16.20
2023-05-08T08:35:19.075Z,16.20
2023-05-08T08:37:46.921Z,16.20
2023-05-08T08:40:14.775Z,16.30
2023-05-08T08:42:42.658Z,16.30
2023-05-08T08:45:11.849Z,16.30
2023-05-08T08:47:41.904Z,16.30
2023-05-08T08:50:14.173Z,16.40
2023-05-08T08:52:49.000Z,16.40
2023-05-08T08:55:19.049Z,16.60
2023-05-08T08:57:56.114Z,16.40
2023-05-08T09:00:27.811Z,16.40
2023-05-08T09:02:56.050Z,16.40
2023-05-08T09:05:25.025Z,16.50
2023-05-08T09:07:55.810Z,16.60
2023-05-08T09:10:25.681Z,17.10
2023-05-08T09:12:54.020Z,17.00
2023-05-08T09:15:22.139Z,16.80
2023-05-08T09:17:50.292Z,16.90
2023-05-08T09:20:18.618Z,17.00
2023-05-08T09:22:47.418Z,16.90
2023-05-08T09:25:18.346Z,17.00
2023-05-08T09:27:46.291Z,16.90
2023-05-08T09:30:15.362Z,17.10
2023-05-08T09:32:45.286Z,17.20
2023-05-08T09:35:14.252Z,17.20
2023-05-08T09:37:43.609Z,17.20
2023-05-08T09:40:21.146Z,17.20
2023-05-08T09:42:50.371Z,17.30
2023-05-08T09:45:29.465Z,17.30
2023-05-08T09:47:57.508Z,17.30
2023-05-08T09:50:26.662Z,17.30
2023-05-08T09:52:54.914Z,17.30
2023-05-08T09:55:24.457Z,17.40
2023-05-08T09:57:57.070Z,17.40
2023-05-08T10:00:25.854Z,17.40
2023-05-08T10:02:59.586Z,17.50
2023-05-08T10:05:32.093Z,17.60
2023-05-08T10:08:01.403Z,17.60
2023-05-08T10:10:31.648Z,17.60
2023-05-08T10:13:00.096Z,17.70
2023-05-08T10:15:31.098Z,17.80
2023-05-08T10:18:04.907Z,17.70
2023-05-08T10:20:33.375Z,17.90
2023-05-08T10:23:03.991Z,17.90
2023-05-08T10:25:36.244Z,17.90
2023-05-08T10:28:14.538Z,17.90
2023-05-08T10:30:48.433Z,17.90
2023-05-08T10:33:21.521Z,18.00
2023-05-08T10:35:49.783Z,17.90
2023-05-08T10:38:18.292Z,18.00
2023-05-08T10:40:50.629Z,18.10
2023-05-08T10:43:19.465Z,18.10
2023-05-08T10:45:47.979Z,18.20
2023-05-08T10:48:26.128Z,18.20
2023-05-08T10:51:02.026Z,18.30
2023-05-08T10:53:36.094Z,18.30
2023-05-08T10:56:06.250Z,18.40
2023-05-08T10:58:35.790Z,18.40
2023-05-08T11:01:15.801Z,18.60
2023-05-08T11:03:46.666Z,18.40
